Time;durP1;ratioP1;P1;durP2;ratioP2;P2;SDS_P1;SDS_P2;PMS_P1;PMS_P2;Temp;Humidity;BMP_temperature;BMP_pressure;BME280_temperature;BME280_humidity;BME280_pressure;Samples;Min_cycle;Max_cycle;Signal;HPM_P1;HPM_P2
2022/09/26 00:01:10;;;;;;;3.13;1.90;;;12.70;99.90;;;;;;5022813;28;20033;-62
2022/09/26 00:03:37;;;;;;;2.65;1.92;;;12.60;99.90;;;;;;5039175;28;20432;-62
2022/09/26 00:06:05;;;;;;;6.80;2.10;;;12.60;99.90;;;;;;5039860;28;20037;-62
2022/09/26 00:08:31;;;;;;;3.72;1.90;;;12.70;99.90;;;;;;5039741;28;20061;-62
2022/09/26 00:10:59;;;;;;;3.83;2.25;;;12.60;99.90;;;;;;5039600;28;20037;-62
2022/09/26 00:13:27;;;;;;;6.90;2.10;;;12.50;99.90;;;;;;5040244;28;20025;-63
2022/09/26 00:15:54;;;;;;;5.15;2.00;;;12.40;99.90;;;;;;5039678;28;20021;-62
2022/09/26 00:18:20;;;;;;;5.60;2.00;;;12.40;99.90;;;;;;5038973;28;20051;-63
2022/09/26 00:20:46;;;;;;;4.25;2.00;;;12.40;99.90;;;;;;5038844;28;20025;-62
2022/09/26 00:23:12;;;;;;;4.53;2.20;;;12.30;99.90;;;;;;5040614;28;20036;-62
2022/09/26 00:25:49;;;;;;;3.97;2.10;;;12.30;99.90;;;;;;5039402;28;20069;-63
2022/09/26 00:28:16;;;;;;;7.43;2.10;;;12.30;99.90;;;;;;5039853;28;20033;-62
2022/09/26 00:30:43;;;;;;;4.63;1.75;;;12.30;99.90;;;;;;5039324;28;20029;-63
2022/09/26 00:33:10;;;;;;;5.10;1.90;;;12.30;99.90;;;;;;5039697;28;20060;-63
2022/09/26 00:35:36;;;;;;;5.07;2.08;;;12.30;99.90;;;;;;5039287;28;20109;-64
2022/09/26 00:38:02;;;;;;;4.50;1.67;;;12.30;99.90;;;;;;5038356;28;20045;-67
2022/09/26 00:40:29;;;;;;;4.95;1.90;;;12.30;99.90;;;;;;5038415;28;20167;-63
2022/09/26 00:42:55;;;;;;;5.53;1.60;;;12.30;99.90;;;;;;5021913;28;20033;-62
2022/09/26 00:45:24;;;;;;;4.00;1.40;;;12.40;99.90;;;;;;5039026;28;20092;-64
2022/09/26 00:47:58;;;;;;;3.40;1.92;;;12.50;99.90;;;;;;5038291;28;20029;-63
2022/09/26 00:50:44;;;;;;;7.82;2.00;;;12.40;99.90;;;;;;5038165;28;20083;-63
2022/09/26 00:53:10;;;;;;;7.47;1.67;;;12.30;99.90;;;;;;5039250;28;20420;-63
2022/09/26 00:55:41;;;;;;;6.60;1.85;;;12.30;99.90;;;;;;5038257;28;20033;-63
2022/09/26 00:58:16;;;;;;;6.22;1.85;;;12.30;99.90;;;;;;5038106;28;20353;-62
2022/09/26 01:00:45;;;;;;;7.28;1.35;;;12.20;99.90;;;;;;5038769;28;20037;-64
2022/09/26 01:03:11;;;;;;;3.25;1.40;;;12.10;99.90;;;;;;5037766;28;20112;-64
2022/09/26 01:05:37;;;;;;;8.50;1.70;;;12.10;99.90;;;;;;5038659;28;20033;-62
2022/09/26 01:08:04;;;;;;;4.88;1.58;;;12.00;99.90;;;;;;5038711;28;20057;-64
2022/09/26 01:10:31;;;;;;;3.40;1.50;;;12.00;99.90;;;;;;5054334;28;20092;-64
2022/09/26 01:13:00;;;;;;;3.40;1.67;;;12.00;99.90;;;;;;5038654;28;20032;-62
2022/09/26 01:15:26;;;;;;;4.90;1.50;;;12.00;99.90;;;;;;5038540;28;20120;-63
2022/09/26 01:17:52;;;;;;;5.00;1.67;;;12.00;99.90;;;;;;5038377;28;20057;-64
2022/09/26 01:20:50;;;;;;;5.75;1.60;;;12.00;99.90;;;;;;5038342;28;20068;-64
2022/09/26 01:23:51;;;;;;;3.17;1.70;;;11.90;99.90;;;;;;5022413;28;20077;-63
2022/09/26 01:26:23;;;;;;;4.82;1.40;;;11.90;99.90;;;;;;5002294;28;20046;-63
2022/09/26 01:29:16;;;;;;;3.92;1.27;;;12.00;99.90;;;;;;5054104;28;20029;-64
2022/09/26 01:32:47;;;;;;;;;;;12.00;99.90;;;;;;5038574;28;20037;-66
2022/09/26 01:34:55;;;;;;;5.95;1.65;;;12.00;99.90;;;;;;5037297;28;19909;-65
2022/09/26 01:37:55;;;;;;;4.13;1.40;;;11.90;99.90;;;;;;5037428;28;20021;-66
2022/09/26 01:40:39;;;;;;;6.43;1.60;;;11.90;99.90;;;;;;5037249;28;20455;-64
2022/09/26 01:43:13;;;;;;;5.45;1.60;;;11.90;99.90;;;;;;5037405;28;20041;-65
2022/09/26 01:46:16;;;;;;;3.03;1.38;;;11.90;99.90;;;;;;5053779;28;20124;-65
2022/09/26 01:48:47;;;;;;;5.00;1.70;;;11.90;99.90;;;;;;5053729;28;20033;-64
2022/09/26 01:51:29;;;;;;;2.72;1.20;;;11.90;99.90;;;;;;5037774;28;20033;-64
2022/09/26 01:54:12;;;;;;;3.13;1.33;;;12.00;99.90;;;;;;5037044;28;20025;-65
2022/09/26 01:56:40;;;;;;;8.18;1.52;;;12.00;99.90;;;;;;5036924;28;20029;-64
2022/09/26 01:59:13;;;;;;;3.38;1.23;;;12.00;99.90;;;;;;5036863;28;20304;-64
2022/09/26 02:01:49;;;;;;;5.07;1.60;;;12.10;99.90;;;;;;5053449;28;20290;-63
2022/09/26 02:04:27;;;;;;;3.45;1.30;;;12.10;99.90;;;;;;5053390;28;20025;-64
2022/09/26 02:07:06;;;;;;;3.03;1.30;;;12.10;99.90;;;;;;5037492;28;20052;-64
2022/09/26 02:09:39;;;;;;;4.13;1.25;;;12.00;99.90;;;;;;5036752;28;20079;-64
2022/09/26 02:12:11;;;;;;;4.28;1.55;;;12.00;99.90;;;;;;5036598;28;20037;-67
2022/09/26 02:14:40;;;;;;;4.28;1.50;;;12.00;99.90;;;;;;5036368;28;20021;-64
2022/09/26 02:17:11;;;;;;;3.55;1.48;;;12.00;99.90;;;;;;5036558;28;20297;-64
2022/09/26 02:19:55;;;;;;;3.40;1.38;;;12.10;99.90;;;;;;5036578;28;20034;-64
2022/09/26 02:22:26;;;;;;;3.38;1.33;;;12.20;99.90;;;;;;5037671;28;20446;-64
2022/09/26 02:24:52;;;;;;;4.72;1.30;;;12.20;99.90;;;;;;5036483;28;20350;-64
2022/09/26 02:27:20;;;;;;;5.03;1.30;;;12.20;99.90;;;;;;5037191;28;20033;-66
2022/09/26 02:29:46;;;;;;;4.03;1.35;;;12.30;99.90;;;;;;5036301;28;20310;-64
2022/09/26 02:32:29;;;;;;;6.80;1.55;;;12.20;99.90;;;;;;5004415;28;20033;-63
2022/09/26 02:34:56;;;;;;;3.67;1.48;;;12.10;99.90;;;;;;5036345;28;20033;-64
2022/09/26 02:37:23;;;;;;;3.67;1.52;;;12.10;99.90;;;;;;5020870;28;20405;-66
2022/09/26 02:39:50;;;;;;;4.40;1.30;;;12.20;99.90;;;;;;5052821;28;20037;-64
2022/09/26 02:42:29;;;;;;;6.80;1.25;;;12.20;99.90;;;;;;5036359;28;20352;-64
2022/09/26 02:45:24;;;;;;;3.67;1.23;;;12.10;99.90;;;;;;5019735;28;20022;-65
2022/09/26 02:48:29;;;;;;;4.65;1.50;;;12.10;99.90;;;;;;5052896;28;20025;-63
2022/09/26 02:51:14;;;;;;;5.22;1.40;;;12.10;99.90;;;;;;5036072;28;20334;-64
2022/09/26 02:54:08;;;;;;;5.20;1.42;;;12.10;99.90;;;;;;5036176;28;20080;-65
2022/09/26 02:57:02;;;;;;;3.13;1.33;;;12.00;99.90;;;;;;5052812;28;20060;-63
2022/09/26 02:59:58;;;;;;;2.95;1.50;;;12.00;99.90;;;;;;5053150;28;20695;-67
2022/09/26 03:02:58;;;;;;;4.25;1.48;;;12.00;99.90;;;;;;5036362;28;20334;-69
2022/09/26 03:05:28;;;;;;;4.28;1.60;;;11.90;99.90;;;;;;5019562;28;20037;-65
2022/09/26 03:08:07;;;;;;;5.40;1.90;;;11.90;99.90;;;;;;5036794;28;20083;-65
2022/09/26 03:10:34;;;;;;;4.15;1.80;;;12.00;99.90;;;;;;5035870;28;20025;-69
2022/09/26 03:13:05;;;;;;;6.45;2.20;;;12.00;99.90;;;;;;5036738;28;20025;-66
2022/09/26 03:15:33;;;;;;;5.05;2.03;;;12.00;99.90;;;;;;5035993;28;20037;-64
2022/09/26 03:18:02;;;;;;;5.07;1.85;;;12.00;99.90;;;;;;5035952;28;20044;-65
2022/09/26 03:20:28;;;;;;;5.65;1.95;;;12.00;99.90;;;;;;5019459;28;20048;-66
2022/09/26 03:22:55;;;;;;;7.05;1.92;;;12.00;99.90;;;;;;5052476;28;20072;-62
2022/09/26 03:25:24;;;;;;;5.60;2.00;;;12.00;99.90;;;;;;5052130;28;20053;-65
2022/09/26 03:28:03;;;;;;;3.33;1.75;;;12.00;99.90;;;;;;5039231;28;20053;-64
2022/09/26 03:30:29;;;;;;;6.55;2.10;;;12.00;99.90;;;;;;5023230;28;20037;-65
2022/09/26 03:33:23;;;;;;;4.30;1.80;;;12.00;99.90;;;;;;5035807;28;20045;-68
2022/09/26 03:35:49;;;;;;;6.03;1.80;;;12.00;99.90;;;;;;5023178;28;20040;-66
2022/09/26 03:38:15;;;;;;;5.85;2.08;;;11.90;99.90;;;;;;5055887;28;20321;-66
2022/09/26 03:40:48;;;;;;;5.05;1.70;;;12.00;99.90;;;;;;5039562;28;20025;-65
2022/09/26 03:43:38;;;;;;;5.95;1.95;;;11.90;99.90;;;;;;5040230;28;20124;-68
2022/09/26 03:46:06;;;;;;;4.00;1.75;;;11.90;99.90;;;;;;5056075;28;20037;-73
2022/09/26 03:48:33;;;;;;;6.65;2.00;;;11.90;99.90;;;;;;5039415;28;20119;-70
2022/09/26 03:51:05;;;;;;;3.05;1.60;;;11.90;99.90;;;;;;5055885;28;20033;-71
2022/09/26 03:53:33;;;;;;;6.65;2.00;;;11.80;99.90;;;;;;5056016;28;20279;-67
2022/09/26 03:56:05;;;;;;;3.13;1.70;;;11.80;99.90;;;;;;5039250;28;20302;-70
2022/09/26 03:58:30;;;;;;;3.80;2.00;;;11.80;99.90;;;;;;5040005;28;20266;-66
2022/09/26 04:01:09;;;;;;;6.10;2.00;;;11.80;99.90;;;;;;5022627;28;20047;-66
2022/09/26 04:03:36;;;;;;;5.05;1.70;;;11.90;99.90;;;;;;5039123;28;20095;-65
2022/09/26 04:06:04;;;;;;;6.35;1.98;;;11.90;99.90;;;;;;5039071;28;20038;-67
2022/09/26 04:08:30;;;;;;;8.98;1.75;;;11.90;99.90;;;;;;5022608;28;20042;-67
2022/09/26 04:11:04;;;;;;;5.50;1.60;;;11.90;99.90;;;;;;5055588;28;20033;-67
2022/09/26 04:13:31;;;;;;;4.30;1.98;;;11.90;99.90;;;;;;5039003;28;20090;-66
2022/09/26 04:15:59;;;;;;;5.25;1.67;;;11.90;99.90;;;;;;5038858;28;20022;-65
2022/09/26 04:18:27;;;;;;;9.00;1.50;;;11.80;99.90;;;;;;5038844;28;20037;-67
2022/09/26 04:21:01;;;;;;;5.05;1.50;;;11.80;99.90;;;;;;5038727;28;20037;-67
2022/09/26 04:23:29;;;;;;;5.65;1.40;;;11.80;99.90;;;;;;5055322;28;20029;-67
2022/09/26 04:25:55;;;;;;;5.00;1.58;;;11.80;99.90;;;;;;5038643;28;20040;-68
2022/09/26 04:28:23;;;;;;;3.22;1.70;;;11.80;99.90;;;;;;5039397;28;20072;-68
2022/09/26 04:30:48;;;;;;;6.60;1.90;;;11.70;99.90;;;;;;5038534;28;20064;-67
2022/09/26 04:33:16;;;;;;;4.55;1.73;;;11.70;99.90;;;;;;5038784;28;20060;-67
2022/09/26 04:35:45;;;;;;;6.97;1.95;;;11.80;99.90;;;;;;5022448;28;20088;-64
2022/09/26 04:38:11;;;;;;;3.08;1.70;;;11.80;99.90;;;;;;5021741;28;20364;-71
2022/09/26 04:40:37;;;;;;;2.55;1.60;;;11.90;99.90;;;;;;5022139;28;20046;-69
2022/09/26 04:43:09;;;;;;;4.68;1.60;;;11.80;99.90;;;;;;5022875;28;20044;-69
2022/09/26 04:45:35;;;;;;;4.70;1.65;;;11.80;99.90;;;;;;5039012;28;20021;-67
2022/09/26 04:48:01;;;;;;;5.93;1.90;;;11.90;99.90;;;;;;5054738;28;20093;-66
2022/09/26 04:50:57;;;;;;;7.50;1.63;;;11.80;99.90;;;;;;5025194;28;20029;-68
2022/09/26 04:53:23;;;;;;;4.20;1.80;;;11.80;99.90;;;;;;5037807;28;20338;-68
2022/09/26 04:56:08;;;;;;;3.92;1.65;;;11.80;99.90;;;;;;5055229;28;20025;-71
2022/09/26 04:58:37;;;;;;;6.00;2.03;;;11.80;99.90;;;;;;5054342;28;20352;-65
2022/09/26 05:01:05;;;;;;;4.47;2.17;;;11.90;99.90;;;;;;5054576;28;20047;-72
2022/09/26 05:03:53;;;;;;;6.35;1.70;;;11.80;99.90;;;;;;5027965;28;20076;-68
2022/09/26 05:06:19;;;;;;;4.22;1.98;;;11.80;99.90;;;;;;5021186;28;20033;-68
2022/09/26 05:08:45;;;;;;;5.82;1.83;;;11.80;99.90;;;;;;5021117;28;20091;-70
2022/09/26 05:11:15;;;;;;;7.20;2.03;;;11.90;99.90;;;;;;5038336;28;20120;-70
2022/09/26 05:13:41;;;;;;;3.40;1.70;;;11.90;99.90;;;;;;5037578;28;20037;-68
2022/09/26 05:16:10;;;;;;;3.97;1.95;;;11.90;99.90;;;;;;5037612;28;20405;-71
2022/09/26 05:18:38;;;;;;;5.07;1.90;;;11.80;99.90;;;;;;5037609;28;20025;-69
2022/09/26 05:21:05;;;;;;;4.93;1.67;;;11.80;99.90;;;;;;5037523;28;20034;-70
2022/09/26 05:26:30;;;;;;;4.13;1.77;;;11.90;99.90;;;;;;5037368;28;20120;-68
2022/09/26 05:29:00;;;;;;;6.15;1.80;;;11.90;99.90;;;;;;5037285;28;20034;-67
2022/09/26 05:31:38;;;;;;;3.13;1.70;;;12.00;99.90;;;;;;5021939;28;20037;-68
2022/09/26 05:34:09;;;;;;;4.90;1.70;;;12.00;99.90;;;;;;5037490;28;20047;-69
2022/09/26 05:36:35;;;;;;;4.13;1.77;;;12.00;99.90;;;;;;5021034;28;20305;-68
2022/09/26 05:39:03;;;;;;;4.45;1.50;;;12.00;99.90;;;;;;5036973;28;20049;-70
2022/09/26 05:41:31;;;;;;;4.50;1.67;;;12.00;99.90;;;;;;5020790;28;20045;-63
2022/09/26 05:43:57;;;;;;;5.68;1.48;;;12.10;99.90;;;;;;5038182;28;20037;-70
2022/09/26 05:46:26;;;;;;;1.92;1.50;;;12.00;99.90;;;;;;5037103;28;20087;-68
2022/09/26 05:48:54;;;;;;;3.17;1.58;;;12.00;99.90;;;;;;5020359;28;20067;-70
2022/09/26 05:51:21;;;;;;;2.95;1.30;;;12.00;99.90;;;;;;5037007;28;20301;-69
2022/09/26 05:53:48;;;;;;;3.22;1.73;;;12.00;99.90;;;;;;5020308;28;20026;-67
2022/09/26 05:56:18;;;;;;;4.55;1.30;;;12.10;99.90;;;;;;5036613;28;20091;-69
2022/09/26 05:59:03;;;;;;;5.95;1.48;;;12.10;99.90;;;;;;5036894;28;20043;-64
2022/09/26 06:02:07;;;;;;;4.15;1.30;;;12.10;99.90;;;;;;5037310;28;20329;-67
2022/09/26 06:04:51;;;;;;;3.63;1.45;;;12.10;99.90;;;;;;5053398;28;20033;-66
2022/09/26 06:07:43;;;;;;;2.50;1.10;;;12.10;99.90;;;;;;5029094;28;20038;-69
2022/09/26 06:10:14;;;;;;;3.05;1.40;;;12.20;99.90;;;;;;5020680;28;20044;-65
2022/09/26 06:12:49;;;;;;;2.63;1.38;;;12.20;99.90;;;;;;5037121;28;20294;-62
2022/09/26 06:15:15;;;;;;;4.35;1.42;;;12.20;99.90;;;;;;5036072;28;20045;-70
2022/09/26 06:17:41;;;;;;;4.28;1.40;;;12.10;99.90;;;;;;5003547;28;20095;-69
2022/09/26 06:20:09;;;;;;;6.07;1.30;;;12.20;99.90;;;;;;5052969;28;20099;-70
2022/09/26 06:22:42;;;;;;;2.70;1.38;;;12.30;99.90;;;;;;5020223;28;20065;-73
2022/09/26 06:25:09;;;;;;;6.07;1.30;;;12.10;99.90;;;;;;5019923;28;20030;-70
2022/09/26 06:27:37;;;;;;;2.97;1.20;;;12.10;99.90;;;;;;5036083;28;20030;-70
2022/09/26 06:30:09;;;;;;;3.83;1.40;;;12.00;99.90;;;;;;5020022;28;20048;-73
2022/09/26 06:32:37;;;;;;;5.95;1.90;;;12.00;99.90;;;;;;5036412;28;20297;-69
2022/09/26 06:35:20;;;;;;;5.30;1.33;;;12.20;99.90;;;;;;5035993;28;20297;-72
2022/09/26 06:38:06;;;;;;;3.60;1.20;;;12.10;99.90;;;;;;5025935;28;20041;-70
2022/09/26 06:40:32;;;;;;;2.67;1.20;;;12.10;99.90;;;;;;5019607;28;20052;-68
2022/09/26 06:42:59;;;;;;;5.05;1.58;;;12.20;99.90;;;;;;5052515;28;20356;-70
2022/09/26 06:45:44;;;;;;;5.55;1.33;;;12.10;99.90;;;;;;5036047;28;20048;-68
2022/09/26 06:48:35;;;;;;;4.75;1.00;;;12.00;99.90;;;;;;5036676;28;20116;-73
2022/09/26 06:51:12;;;;;;;2.92;1.30;;;12.10;99.90;;;;;;5037208;28;20411;-70
2022/09/26 06:53:39;;;;;;;6.57;1.70;;;12.10;99.90;;;;;;5038258;28;20347;-74
2022/09/26 06:56:05;;;;;;;2.15;1.38;;;12.20;99.90;;;;;;5035999;28;20066;-64
2022/09/26 06:58:31;;;;;;;4.78;1.60;;;12.20;99.90;;;;;;5019652;28;20328;-71
2022/09/26 07:01:05;;;;;;;3.50;1.40;;;12.20;99.90;;;;;;5036839;28;20030;-74
2022/09/26 07:04:00;;;;;;;4.70;1.40;;;12.30;99.90;;;;;;5040759;28;20038;-71
2022/09/26 07:06:36;;;;;;;3.47;1.65;;;12.30;99.90;;;;;;5025107;28;20091;-71
2022/09/26 07:09:03;;;;;;;3.75;1.38;;;12.20;99.90;;;;;;5023857;28;20029;-75
2022/09/26 07:12:01;;;;;;;6.22;2.25;;;12.30;99.90;;;;;;5027363;28;20120;-67
2022/09/26 07:14:29;;;;;;;4.80;1.40;;;12.30;99.90;;;;;;5041074;28;20405;-69
2022/09/26 07:17:01;;;;;;;3.10;1.63;;;12.40;99.90;;;;;;5041359;28;20038;-74
2022/09/26 07:19:56;;;;;;;3.55;1.55;;;12.40;99.90;;;;;;5028077;28;20050;-73
2022/09/26 07:22:42;;;;;;;5.68;1.70;;;12.40;99.90;;;;;;5041500;28;20048;-69
2022/09/26 07:25:08;;;;;;;4.82;1.35;;;12.30;99.90;;;;;;5039902;28;20045;-71
2022/09/26 07:27:35;;;;;;;6.13;1.90;;;12.30;99.90;;;;;;5040578;28;20041;-63
2022/09/26 07:30:02;;;;;;;3.05;1.45;;;12.30;99.90;;;;;;5023549;28;20171;-72
2022/09/26 07:32:31;;;;;;;6.60;2.00;;;12.30;99.90;;;;;;5039934;28;20402;-72
2022/09/26 07:35:12;;;;;;;4.40;1.77;;;12.40;99.90;;;;;;5040076;28;20125;-64
2022/09/26 07:37:38;;;;;;;2.78;1.30;;;12.40;99.90;;;;;;5039296;28;20045;-69
2022/09/26 07:40:05;;;;;;;3.97;1.58;;;12.40;99.90;;;;;;5039287;28;20037;-71
2022/09/26 07:42:32;;;;;;;5.13;1.30;;;12.50;99.90;;;;;;5007161;28;20128;-71
2022/09/26 07:44:57;;;;;;;5.10;1.50;;;12.50;99.90;;;;;;5024621;28;20412;-73
2022/09/26 07:50:28;;;;;;;2.28;1.23;;;12.80;99.90;;;;;;5039791;28;20033;-67
2022/09/26 07:53:17;;;;;;;4.97;1.42;;;12.80;99.90;;;;;;5025939;28;20401;-72
2022/09/26 07:56:09;;;;;;;4.57;1.63;;;12.70;99.90;;;;;;5010635;28;20033;-71
2022/09/26 07:58:54;;;;;;;5.00;1.25;;;12.70;99.90;;;;;;5012763;28;20034;-73
2022/09/26 08:01:44;;;;;;;5.28;1.35;;;12.70;99.90;;;;;;5040752;28;20037;-69
2022/09/26 08:04:29;;;;;;;5.13;1.40;;;12.70;99.90;;;;;;5040507;28;20048;-66
2022/09/26 08:06:56;;;;;;;3.70;1.50;;;12.70;99.90;;;;;;5006565;28;20115;-72
2022/09/26 08:09:21;;;;;;;4.00;1.48;;;12.70;99.90;;;;;;5023528;28;20314;-68
2022/09/26 08:12:27;;;;;;;3.70;1.30;;;12.60;99.90;;;;;;4999130;28;20058;-63
2022/09/26 08:15:07;;;;;;;3.80;1.27;;;12.60;99.90;;;;;;4999419;28;20178;-65
2022/09/26 08:17:43;;;;;;;3.30;1.60;;;12.60;99.90;;;;;;5024724;28;20067;-73
2022/09/26 08:20:09;;;;;;;5.05;1.40;;;12.70;99.90;;;;;;5040177;28;20025;-68
2022/09/26 08:22:36;;;;;;;4.68;2.08;;;12.70;99.90;;;;;;5022707;28;20029;-72
2022/09/26 08:25:05;;;;;;;5.55;1.63;;;12.60;99.90;;;;;;5007242;28;20414;-65
2022/09/26 08:27:50;;;;;;;7.22;1.15;;;12.60;99.90;;;;;;5040238;28;20104;-68
2022/09/26 08:30:17;;;;;;;7.22;1.60;;;12.60;99.90;;;;;;5006697;28;20037;-72
2022/09/26 08:32:58;;;;;;;4.32;1.45;;;12.70;99.90;;;;;;5022352;28;20099;-73
2022/09/26 08:35:25;;;;;;;3.38;1.50;;;12.80;99.90;;;;;;5038494;28;20044;-70
2022/09/26 08:38:09;;;;;;;5.05;1.55;;;12.90;99.90;;;;;;5039744;28;20107;-69
2022/09/26 08:41:16;;;;;;;3.63;1.33;;;12.90;99.90;;;;;;5039694;28;20103;-71
2022/09/26 08:44:13;;;;;;;3.67;1.42;;;13.00;99.90;;;;;;5039472;28;20047;-70
2022/09/26 08:47:49;;;;;;;3.35;1.30;;;13.00;99.90;;;;;;5046442;23;20045;-72
2022/09/26 08:50:37;;;;;;;8.97;1.43;;;13.10;99.90;;;;;;5024019;28;20282;-73
2022/09/26 08:53:11;;;;;;;3.38;1.70;;;13.00;99.90;;;;;;5023435;28;20423;-71
2022/09/26 08:55:47;;;;;;;4.18;1.65;;;12.80;99.90;;;;;;5039335;28;20028;-70
2022/09/26 08:58:17;;;;;;;3.45;1.70;;;12.70;99.90;;;;;;5040918;28;20285;-70
2022/09/26 09:00:46;;;;;;;6.25;1.88;;;12.50;99.90;;;;;;5040203;28;20044;-68
2022/09/26 09:03:34;;;;;;;5.68;1.88;;;12.50;99.90;;;;;;5023797;28;20026;-70
2022/09/26 09:06:11;;;;;;;8.35;1.70;;;12.30;99.90;;;;;;5006921;28;20065;-68
2022/09/26 09:08:47;;;;;;;8.18;1.95;;;12.20;99.90;;;;;;5021818;28;20037;-69
2022/09/26 09:11:59;;;;;;;4.18;1.92;;;12.20;99.90;;;;;;5039375;28;20116;-70
2022/09/26 09:14:34;;;;;;;4.85;2.10;;;12.00;99.90;;;;;;5022419;28;20033;-70
2022/09/26 09:17:57;;;;;;;4.00;1.90;;;12.00;99.90;;;;;;5025824;28;20033;-65
2022/09/26 09:21:10;;;;;;;9.98;2.35;;;12.00;99.90;;;;;;5021143;28;20072;-70
2022/09/26 09:24:17;;;;;;;10.13;2.50;;;11.90;99.90;;;;;;5020724;28;20033;-68
2022/09/26 09:27:16;;;;;;;9.13;2.70;;;11.90;99.90;;;;;;5021628;28;20033;-62
2022/09/26 09:29:42;;;;;;;5.85;2.30;;;11.90;99.90;;;;;;5004974;28;20289;-62
2022/09/26 09:32:57;;;;;;;7.22;2.92;;;11.90;99.90;;;;;;5038291;28;20049;-61
2022/09/26 09:35:51;;;;;;;6.78;2.70;;;11.80;99.90;;;;;;5037822;28;20034;-64
2022/09/26 09:38:49;;;;;;;3.78;2.60;;;11.80;99.90;;;;;;5025313;28;20034;-66
2022/09/26 09:41:48;;;;;;;4.40;2.72;;;11.90;99.90;;;;;;5019194;28;20320;-68
2022/09/26 09:44:43;;;;;;;6.85;3.20;;;12.00;99.90;;;;;;5021136;28;20030;-63
2022/09/26 09:47:14;;;;;;;5.00;2.85;;;12.00;99.90;;;;;;5038059;28;20041;-63
2022/09/26 09:49:42;;;;;;;5.75;2.85;;;12.00;99.90;;;;;;5037020;28;20036;-66
2022/09/26 09:52:24;;;;;;;7.00;2.70;;;12.00;99.90;;;;;;5037584;28;20095;-63
2022/09/26 09:55:17;;;;;;;7.93;2.97;;;12.10;99.90;;;;;;5020510;28;20040;-67
2022/09/26 09:57:55;;;;;;;7.32;2.78;;;12.20;99.90;;;;;;5020644;28;20034;-67
2022/09/26 10:00:23;;;;;;;6.35;3.10;;;12.20;99.90;;;;;;5020442;28;20305;-62
2022/09/26 10:03:19;;;;;;;4.45;2.72;;;12.10;99.90;;;;;;5030483;28;20338;-64
2022/09/26 10:05:50;;;;;;;6.50;2.80;;;12.10;99.90;;;;;;5020380;28;20432;-63
2022/09/26 10:08:36;;;;;;;9.30;3.42;;;12.10;99.90;;;;;;5020221;28;20067;-60
2022/09/26 10:11:40;;;;;;;8.70;3.85;;;12.00;99.90;;;;;;5022820;28;20044;-63
2022/09/26 10:14:37;;;;;;;7.55;3.38;;;11.90;99.90;;;;;;5037154;28;20054;-62
2022/09/26 10:17:32;;;;;;;8.43;3.80;;;11.90;99.90;;;;;;5037088;28;20061;-62
2022/09/26 10:20:34;;;;;;;6.80;4.35;;;11.90;99.90;;;;;;5020208;28;20060;-60
2022/09/26 10:23:02;;;;;;;7.15;4.05;;;11.80;99.90;;;;;;5020506;28;20401;-66
2022/09/26 10:25:28;;;;;;;6.60;3.75;;;11.90;99.90;;;;;;5019962;28;20199;-60
2022/09/26 10:27:56;;;;;;;8.52;4.50;;;11.90;99.90;;;;;;5003768;28;20449;-63
2022/09/26 10:30:30;;;;;;;7.20;3.80;;;11.90;99.90;;;;;;5036319;28;20116;-63
2022/09/26 10:33:05;;;;;;;7.00;3.80;;;11.90;99.90;;;;;;5004669;28;20113;-62
2022/09/26 10:35:51;;;;;;;8.18;3.95;;;12.00;99.90;;;;;;5019741;28;20037;-64
2022/09/26 10:38:22;;;;;;;7.53;3.78;;;11.90;99.90;;;;;;5019876;28;20109;-60
2022/09/26 10:41:00;;;;;;;7.60;3.53;;;11.90;99.90;;;;;;5036189;28;20030;-64
2022/09/26 10:43:36;;;;;;;6.85;3.97;;;11.90;99.90;;;;;;5036245;28;20091;-60
2022/09/26 10:46:29;;;;;;;3.97;3.25;;;12.00;99.90;;;;;;5036501;28;20048;-62
2022/09/26 10:49:15;;;;;;;4.53;3.33;;;11.90;99.90;;;;;;5036864;28;20061;-62
2022/09/26 10:52:19;;;;;;;7.07;3.92;;;11.90;99.90;;;;;;5008713;28;20087;-62
2022/09/26 10:55:03;;;;;;;6.57;3.40;;;12.00;99.90;;;;;;5005053;28;20029;-61
2022/09/26 10:57:53;;;;;;;6.75;3.55;;;12.00;99.90;;;;;;5019636;28;20417;-61
2022/09/26 11:00:36;;;;;;;6.75;3.72;;;11.90;99.90;;;;;;5035654;28;20199;-60
2022/09/26 11:03:04;;;;;;;;;;;11.90;99.90;;;;;;5019939;28;20034;-59
2022/09/26 11:08:29;;;;;;;6.97;2.92;;;12.00;99.90;;;;;;5037005;28;20033;-63
2022/09/26 11:11:26;;;;;;;7.20;2.65;;;12.10;99.90;;;;;;5027662;28;20103;-62
2022/09/26 11:14:02;;;;;;;6.10;3.72;;;12.00;99.90;;;;;;5003499;28;20132;-60
2022/09/26 11:16:53;;;;;;;8.68;3.60;;;12.00;99.90;;;;;;5019529;28;20033;-61
2022/09/26 11:19:59;;;;;;;4.55;2.90;;;12.00;99.90;;;;;;5036477;28;20038;-61
2022/09/26 11:22:37;;;;;;;4.80;2.38;;;12.00;99.90;;;;;;5019159;28;20132;-60
2022/09/26 11:25:23;;;;;;;6.35;3.33;;;12.10;99.90;;;;;;5035757;28;20487;-60
2022/09/26 11:28:26;;;;;;;7.00;2.88;;;12.10;99.90;;;;;;5019333;28;20293;-63
2022/09/26 11:31:27;;;;;;;6.53;2.30;;;12.10;99.90;;;;;;5031061;28;20045;-63
2022/09/26 11:34:16;;;;;;;3.78;2.00;;;12.10;99.90;;;;;;5036240;28;20294;-63
2022/09/26 11:37:12;;;;;;;4.10;2.33;;;12.10;99.90;;;;;;5019249;28;20405;-60
2022/09/26 11:39:49;;;;;;;3.55;2.08;;;12.20;99.90;;;;;;5036315;28;20117;-60
2022/09/26 11:43:03;;;;;;;3.92;2.65;;;12.30;99.90;;;;;;5019165;28;20053;-63
2022/09/26 11:45:55;;;;;;;2.85;1.90;;;12.30;99.90;;;;;;5018852;28;20460;-59
2022/09/26 11:48:56;;;;;;;3.40;2.15;;;12.20;99.90;;;;;;5028056;28;20049;-62
2022/09/26 11:52:03;;;;;;;5.18;2.90;;;12.10;99.90;;;;;;4980263;28;20069;-61
2022/09/26 11:54:40;;;;;;;2.70;2.00;;;12.20;99.90;;;;;;4979636;28;20048;-59
2022/09/26 11:57:27;;;;;;;3.95;2.45;;;12.20;99.90;;;;;;4996906;28;20049;-60
2022/09/26 12:00:26;;;;;;;2.75;2.00;;;12.20;99.90;;;;;;5023044;28;20029;-62
2022/09/26 12:03:03;;;;;;;3.53;1.88;;;12.20;99.90;;;;;;5003362;28;20041;-61
2022/09/26 12:05:29;;;;;;;3.80;1.65;;;12.20;99.90;;;;;;5039779;28;20083;-61
2022/09/26 12:08:05;;;;;;;2.33;1.90;;;12.10;99.90;;;;;;5022540;28;20041;-60
2022/09/26 12:10:54;;;;;;;3.53;2.00;;;12.20;99.90;;;;;;5022446;28;20064;-59
2022/09/26 12:13:34;;;;;;;3.10;1.60;;;12.20;99.90;;;;;;5039872;28;20026;-59
2022/09/26 12:15:59;;;;;;;3.45;2.08;;;12.20;99.90;;;;;;5039707;28;20033;-59
2022/09/26 12:18:45;;;;;;;2.63;1.80;;;12.20;99.90;;;;;;5039471;28;20036;-62
2022/09/26 12:21:29;;;;;;;4.95;1.92;;;12.30;99.90;;;;;;5022347;28;20025;-62
2022/09/26 12:24:29;;;;;;;2.60;1.75;;;12.30;99.90;;;;;;5039533;28;20052;-60
2022/09/26 12:27:44;;;;;;;2.65;1.88;;;12.40;99.90;;;;;;4969591;28;20046;-61
2022/09/26 12:30:15;;;;;;;3.40;2.13;;;12.40;99.90;;;;;;5033499;28;20052;-64
2022/09/26 12:33:19;;;;;;;3.33;1.60;;;12.50;99.90;;;;;;5039194;28;20029;-63
2022/09/26 12:36:17;;;;;;;3.78;1.70;;;12.50;99.90;;;;;;5022341;28;20128;-61
2022/09/26 12:38:46;;;;;;;3.67;2.00;;;12.60;99.90;;;;;;5039480;28;20397;-59
2022/09/26 12:41:30;;;;;;;3.40;2.03;;;12.70;99.90;;;;;;5039203;28;20095;-62
2022/09/26 12:44:18;;;;;;;3.22;1.63;;;12.70;99.90;;;;;;5039057;28;20031;-60
2022/09/26 12:47:21;;;;;;;2.22;1.70;;;12.60;99.90;;;;;;5022758;28;20029;-61
2022/09/26 12:50:23;;;;;;;3.13;1.88;;;12.60;99.90;;;;;;5039072;28;20116;-62
2022/09/26 12:53:20;;;;;;;1.90;1.70;;;12.50;99.90;;;;;;5039335;28;20033;-62
2022/09/26 12:56:06;;;;;;;3.97;1.73;;;12.50;99.90;;;;;;5038857;28;20029;-66
2022/09/26 12:59:10;;;;;;;3.28;1.80;;;12.40;99.90;;;;;;5038384;28;20095;-63
2022/09/26 13:01:42;;;;;;;4.07;1.70;;;12.40;99.90;;;;;;5038836;28;20286;-63
2022/09/26 13:04:56;;;;;;;4.43;1.60;;;12.40;99.90;;;;;;5038816;28;20040;-63
2022/09/26 13:07:45;;;;;;;2.47;1.52;;;12.40;99.90;;;;;;5021597;28;20062;-65
2022/09/26 13:10:22;;;;;;;3.08;1.80;;;12.40;99.90;;;;;;5038761;28;20021;-62
2022/09/26 13:12:57;;;;;;;4.32;1.60;;;12.50;99.90;;;;;;5038673;28;20029;-65
2022/09/26 13:15:30;;;;;;;2.33;1.30;;;12.40;99.90;;;;;;5038584;28;20090;-63
2022/09/26 13:18:04;;;;;;;1.40;1.10;;;12.50;99.90;;;;;;5038547;28;20057;-62
2022/09/26 13:20:43;;;;;;;3.53;1.60;;;12.40;99.90;;;;;;5038567;28;20087;-67
2022/09/26 13:23:26;;;;;;;1.58;1.48;;;12.50;99.90;;;;;;5037646;28;20095;-63
2022/09/26 13:26:00;;;;;;;3.70;1.42;;;12.60;99.90;;;;;;5038310;28;20082;-62
2022/09/26 13:28:29;;;;;;;1.83;1.10;;;12.60;99.90;;;;;;5038426;28;20397;-64
2022/09/26 13:31:17;;;;;;;2.33;1.20;;;12.50;99.90;;;;;;5038043;28;20029;-62
2022/09/26 13:34:11;;;;;;;1.50;1.00;;;12.50;99.90;;;;;;5038238;28;20034;-68
2022/09/26 13:36:41;;;;;;;2.80;1.48;;;12.50;99.90;;;;;;5038682;28;20029;-61
2022/09/26 13:39:21;;;;;;;1.25;1.02;;;12.50;99.90;;;;;;5038106;28;20025;-62
2022/09/26 13:41:50;;;;;;;1.98;1.40;;;12.50;99.90;;;;;;5038047;28;20026;-62
2022/09/26 13:44:47;;;;;;;2.80;1.30;;;12.40;99.90;;;;;;5037998;28;20029;-63
2022/09/26 13:47:21;;;;;;;1.75;1.10;;;12.50;99.90;;;;;;5037848;28;20049;-61
2022/09/26 13:50:22;;;;;;;2.45;1.33;;;12.50;99.90;;;;;;5004254;28;20069;-62
2022/09/26 13:53:02;;;;;;;1.42;1.20;;;12.50;99.90;;;;;;5037750;28;20052;-63
2022/09/26 13:55:28;;;;;;;1.52;1.00;;;12.50;99.90;;;;;;5020762;28;20044;-61